sensor_id;sensor_type;location;lat;lon;timestamp;temperature;humidity
23271;DHT22;11804;51.118;17.058;2023-04-06T00:02:13;1.20;99.90
23271;DHT22;11804;51.118;17.058;2023-04-06T00:04:41;1.00;99.90
23271;DHT22;11804;51.118;17.058;2023-04-06T00:07:09;1.00;99.90
23271;DHT22;11804;51.118;17.058;2023-04-06T00:09:36;0.80;99.90
23271;DHT22;11804;51.118;17.058;2023-04-06T00:12:05;0.90;99.90
23271;DHT22;11804;51.118;17.058;2023-04-06T00:14:33;0.90;99.90
23271;DHT22;11804;51.118;17.058;2023-04-06T00:17:01;1.00;99.90
23271;DHT22;11804;51.118;17.058;2023-04-06T00:19:28;1.00;99.90
23271;DHT22;11804;51.118;17.058;2023-04-06T00:21:56;1.00;99.90
23271;DHT22;11804;51.118;17.058;2023-04-06T00:24:23;1.10;99.90
23271;DHT22;11804;51.118;17.058;2023-04-06T00:26:51;1.10;99.90
23271;DHT22;11804;51.118;17.058;2023-04-06T00:29:20;1.10;99.90
23271;DHT22;11804;51.118;17.058;2023-04-06T00:31:47;1.10;99.90
23271;DHT22;11804;51.118;17.058;2023-04-06T00:34:15;0.90;99.90
23271;DHT22;11804;51.118;17.058;2023-04-06T00:36:42;0.50;99.90
23271;DHT22;11804;51.118;17.058;2023-04-06T00:39:10;0.30;99.90
23271;DHT22;11804;51.118;17.058;2023-04-06T00:41:40;0.40;99.90
23271;DHT22;11804;51.118;17.058;2023-04-06T00:44:08;0.20;99.90
23271;DHT22;11804;51.118;17.058;2023-04-06T00:46:36;0.10;99.90
23271;DHT22;11804;51.118;17.058;2023-04-06T00:49:03;0.10;99.90
23271;DHT22;11804;51.118;17.058;2023-04-06T00:51:31;0.10;99.90
23271;DHT22;11804;51.118;17.058;2023-04-06T00:53:59;0.20;99.90
23271;DHT22;11804;51.118;17.058;2023-04-06T00:56:26;0.20;99.90
23271;DHT22;11804;51.118;17.058;2023-04-06T00:58:54;0.30;99.90
23271;DHT22;11804;51.118;17.058;2023-04-06T01:01:23;0.40;99.90
23271;DHT22;11804;51.118;17.058;2023-04-06T01:03:52;0.30;99.90
23271;DHT22;11804;51.118;17.058;2023-04-06T01:06:20;0.30;99.90
23271;DHT22;11804;51.118;17.058;2023-04-06T01:08:48;0.30;99.90
23271;DHT22;11804;51.118;17.058;2023-04-06T01:11:17;0.40;99.90
23271;DHT22;11804;51.118;17.058;2023-04-06T01:13:44;0.40;99.90
23271;DHT22;11804;51.118;17.058;2023-04-06T01:16:12;0.50;99.90
23271;DHT22;11804;51.118;17.058;2023-04-06T01:18:42;0.60;99.90
23271;DHT22;11804;51.118;17.058;2023-04-06T01:21:16;0.50;99.90
23271;DHT22;11804;51.118;17.058;2023-04-06T01:23:45;0.40;99.90
23271;DHT22;11804;51.118;17.058;2023-04-06T01:26:14;0.30;99.90
23271;DHT22;11804;51.118;17.058;2023-04-06T01:28:41;0.40;99.90
23271;DHT22;11804;51.118;17.058;2023-04-06T01:31:10;0.40;99.90
23271;DHT22;11804;51.118;17.058;2023-04-06T01:33:38;0.40;99.90
23271;DHT22;11804;51.118;17.058;2023-04-06T01:36:07;0.40;99.90
23271;DHT22;11804;51.118;17.058;2023-04-06T01:38:34;0.40;99.90
23271;DHT22;11804;51.118;17.058;2023-04-06T01:41:02;0.40;99.90
23271;DHT22;11804;51.118;17.058;2023-04-06T01:43:30;0.50;99.90
23271;DHT22;11804;51.118;17.058;2023-04-06T01:45:57;0.50;99.90
23271;DHT22;11804;51.118;17.058;2023-04-06T01:48:26;0.60;99.90
23271;DHT22;11804;51.118;17.058;2023-04-06T01:50:54;0.50;99.90
23271;DHT22;11804;51.118;17.058;2023-04-06T01:53:22;0.50;99.90
23271;DHT22;11804;51.118;17.058;2023-04-06T01:55:50;0.40;99.90
23271;DHT22;11804;51.118;17.058;2023-04-06T01:58:17;0.30;99.90
23271;DHT22;11804;51.118;17.058;2023-04-06T02:00:45;0.10;99.90
23271;DHT22;11804;51.118;17.058;2023-04-06T02:03:12;0.10;99.90
23271;DHT22;11804;51.118;17.058;2023-04-06T02:05:41;0.00;99.90
23271;DHT22;11804;51.118;17.058;2023-04-06T02:08:08;0.10;99.90
23271;DHT22;11804;51.118;17.058;2023-04-06T02:10:36;0.10;99.90
23271;DHT22;11804;51.118;17.058;2023-04-06T02:13:04;0.30;99.90
23271;DHT22;11804;51.118;17.058;2023-04-06T02:15:31;0.30;99.90
23271;DHT22;11804;51.118;17.058;2023-04-06T02:17:59;0.30;99.90
23271;DHT22;11804;51.118;17.058;2023-04-06T02:20:27;0.30;99.90
23271;DHT22;11804;51.118;17.058;2023-04-06T02:22:56;0.20;99.90
23271;DHT22;11804;51.118;17.058;2023-04-06T02:25:24;0.20;99.90
23271;DHT22;11804;51.118;17.058;2023-04-06T02:27:52;0.20;99.90
23271;DHT22;11804;51.118;17.058;2023-04-06T02:30:19;0.20;99.90
23271;DHT22;11804;51.118;17.058;2023-04-06T02:32:47;0.30;99.90
23271;DHT22;11804;51.118;17.058;2023-04-06T02:35:14;0.30;99.90
23271;DHT22;11804;51.118;17.058;2023-04-06T02:37:42;0.20;99.90
23271;DHT22;11804;51.118;17.058;2023-04-06T02:40:10;0.30;99.90
23271;DHT22;11804;51.118;17.058;2023-04-06T02:42:38;0.10;99.90
23271;DHT22;11804;51.118;17.058;2023-04-06T02:45:06;0.00;99.90
23271;DHT22;11804;51.118;17.058;2023-04-06T02:47:34;-0.10;99.90
23271;DHT22;11804;51.118;17.058;2023-04-06T02:50:02;-0.20;99.90
23271;DHT22;11804;51.118;17.058;2023-04-06T02:52:30;-0.30;99.90
23271;DHT22;11804;51.118;17.058;2023-04-06T02:54:57;-0.30;99.90
23271;DHT22;11804;51.118;17.058;2023-04-06T02:57:25;-0.30;99.90
23271;DHT22;11804;51.118;17.058;2023-04-06T02:59:52;-0.30;99.90
23271;DHT22;11804;51.118;17.058;2023-04-06T03:02:20;-0.30;99.90
23271;DHT22;11804;51.118;17.058;2023-04-06T03:04:47;-0.30;99.90
23271;DHT22;11804;51.118;17.058;2023-04-06T03:07:15;-0.20;99.90
23271;DHT22;11804;51.118;17.058;2023-04-06T03:09:42;-0.20;99.90
23271;DHT22;11804;51.118;17.058;2023-04-06T03:12:10;-0.10;99.90
23271;DHT22;11804;51.118;17.058;2023-04-06T03:14:37;-0.10;99.90
23271;DHT22;11804;51.118;17.058;2023-04-06T03:17:05;-0.20;99.90
23271;DHT22;11804;51.118;17.058;2023-04-06T03:19:32;-0.20;99.90
23271;DHT22;11804;51.118;17.058;2023-04-06T03:22:00;-0.20;99.90
23271;DHT22;11804;51.118;17.058;2023-04-06T03:24:27;-0.20;99.90
23271;DHT22;11804;51.118;17.058;2023-04-06T03:26:55;-0.10;99.90
23271;DHT22;11804;51.118;17.058;2023-04-06T03:29:23;-0.10;99.90
23271;DHT22;11804;51.118;17.058;2023-04-06T03:31:51;-0.20;99.90
23271;DHT22;11804;51.118;17.058;2023-04-06T03:34:18;-0.40;99.90
23271;DHT22;11804;51.118;17.058;2023-04-06T03:36:46;-0.30;99.90
23271;DHT22;11804;51.118;17.058;2023-04-06T03:39:14;-0.30;99.90
23271;DHT22;11804;51.118;17.058;2023-04-06T03:41:41;-0.30;99.90
23271;DHT22;11804;51.118;17.058;2023-04-06T03:44:11;-0.30;99.90
23271;DHT22;11804;51.118;17.058;2023-04-06T03:46:38;-0.30;99.90
23271;DHT22;11804;51.118;17.058;2023-04-06T03:49:06;-0.40;99.90
23271;DHT22;11804;51.118;17.058;2023-04-06T03:51:34;-0.50;99.90
23271;DHT22;11804;51.118;17.058;2023-04-06T03:54:03;-0.50;99.90
23271;DHT22;11804;51.118;17.058;2023-04-06T03:56:31;-0.50;99.90
23271;DHT22;11804;51.118;17.058;2023-04-06T03:58:58;-0.50;99.90
23271;DHT22;11804;51.118;17.058;2023-04-06T04:01:26;-0.50;99.90
23271;DHT22;11804;51.118;17.058;2023-04-06T04:03:53;-0.40;99.90
23271;DHT22;11804;51.118;17.058;2023-04-06T04:06:21;-0.40;99.90
23271;DHT22;11804;51.118;17.058;2023-04-06T04:08:49;-0.40;99.90
23271;DHT22;11804;51.118;17.058;2023-04-06T04:11:17;-0.30;99.90
23271;DHT22;11804;51.118;17.058;2023-04-06T04:13:44;-0.40;99.90
23271;DHT22;11804;51.118;17.058;2023-04-06T04:16:12;-0.50;99.90
23271;DHT22;11804;51.118;17.058;2023-04-06T04:18:39;-0.70;99.90
23271;DHT22;11804;51.118;17.058;2023-04-06T04:21:09;-0.60;99.90
23271;DHT22;11804;51.118;17.058;2023-04-06T04:23:36;-0.60;99.90
23271;DHT22;11804;51.118;17.058;2023-04-06T04:26:04;-0.70;99.90
23271;DHT22;11804;51.118;17.058;2023-04-06T04:28:32;-0.70;99.90
23271;DHT22;11804;51.118;17.058;2023-04-06T04:30:59;-0.60;99.90
23271;DHT22;11804;51.118;17.058;2023-04-06T04:33:27;-0.60;99.90
23271;DHT22;11804;51.118;17.058;2023-04-06T04:35:55;-0.50;99.90
23271;DHT22;11804;51.118;17.058;2023-04-06T04:38:22;-0.40;99.90
23271;DHT22;11804;51.118;17.058;2023-04-06T04:40:50;-0.40;99.90
23271;DHT22;11804;51.118;17.058;2023-04-06T04:43:17;-0.30;99.90
23271;DHT22;11804;51.118;17.058;2023-04-06T04:45:45;-0.20;99.90
23271;DHT22;11804;51.118;17.058;2023-04-06T04:48:12;-0.10;99.90
23271;DHT22;11804;51.118;17.058;2023-04-06T04:50:40;-0.10;99.90
23271;DHT22;11804;51.118;17.058;2023-04-06T04:53:08;0.00;99.90
23271;DHT22;11804;51.118;17.058;2023-04-06T04:55:35;0.00;99.90
23271;DHT22;11804;51.118;17.058;2023-04-06T04:58:03;0.10;99.90
23271;DHT22;11804;51.118;17.058;2023-04-06T05:00:31;0.10;99.90
23271;DHT22;11804;51.118;17.058;2023-04-06T05:02:58;0.10;99.90
23271;DHT22;11804;51.118;17.058;2023-04-06T05:05:26;0.10;99.90
23271;DHT22;11804;51.118;17.058;2023-04-06T05:07:53;0.10;99.90
23271;DHT22;11804;51.118;17.058;2023-04-06T05:10:21;0.20;99.90
23271;DHT22;11804;51.118;17.058;2023-04-06T05:12:51;0.20;99.90
23271;DHT22;11804;51.118;17.058;2023-04-06T05:15:18;0.30;99.90
23271;DHT22;11804;51.118;17.058;2023-04-06T05:17:46;0.30;99.90
23271;DHT22;11804;51.118;17.058;2023-04-06T05:20:14;0.30;99.90
23271;DHT22;11804;51.118;17.058;2023-04-06T05:22:42;0.30;99.90
23271;DHT22;11804;51.118;17.058;2023-04-06T05:25:10;0.30;99.90
23271;DHT22;11804;51.118;17.058;2023-04-06T05:27:37;0.30;99.90
23271;DHT22;11804;51.118;17.058;2023-04-06T05:30:06;0.40;99.90
23271;DHT22;11804;51.118;17.058;2023-04-06T05:32:34;0.60;99.90
23271;DHT22;11804;51.118;17.058;2023-04-06T05:35:02;0.80;99.90
23271;DHT22;11804;51.118;17.058;2023-04-06T05:37:29;1.90;99.90
23271;DHT22;11804;51.118;17.058;2023-04-06T05:39:57;3.10;99.90
23271;DHT22;11804;51.118;17.058;2023-04-06T05:42:24;3.70;99.90
23271;DHT22;11804;51.118;17.058;2023-04-06T05:44:53;4.50;99.90
23271;DHT22;11804;51.118;17.058;2023-04-06T05:47:23;4.90;99.90
23271;DHT22;11804;51.118;17.058;2023-04-06T05:49:51;5.50;99.90
23271;DHT22;11804;51.118;17.058;2023-04-06T05:52:18;5.50;99.90
23271;DHT22;11804;51.118;17.058;2023-04-06T05:54:46;5.40;97.30
23271;DHT22;11804;51.118;17.058;2023-04-06T05:57:14;5.10;99.90
23271;DHT22;11804;51.118;17.058;2023-04-06T05:59:43;5.10;99.90
23271;DHT22;11804;51.118;17.058;2023-04-06T06:02:11;6.00;97.90
23271;DHT22;11804;51.118;17.058;2023-04-06T06:04:38;6.00;93.40
23271;DHT22;11804;51.118;17.058;2023-04-06T06:07:06;6.20;93.80
23271;DHT22;11804;51.118;17.058;2023-04-06T06:09:33;6.10;92.70
23271;DHT22;11804;51.118;17.058;2023-04-06T06:12:01;6.20;92.60
23271;DHT22;11804;51.118;17.058;2023-04-06T06:14:29;6.40;90.80
23271;DHT22;11804;51.118;17.058;2023-04-06T06:16:56;6.60;89.50
23271;DHT22;11804;51.118;17.058;2023-04-06T06:19:25;6.80;82.40
23271;DHT22;11804;51.118;17.058;2023-04-06T06:21:54;7.50;77.00
23271;DHT22;11804;51.118;17.058;2023-04-06T06:24:25;7.90;77.10
23271;DHT22;11804;51.118;17.058;2023-04-06T06:26:52;7.60;75.70
23271;DHT22;11804;51.118;17.058;2023-04-06T06:29:20;7.70;76.10
23271;DHT22;11804;51.118;17.058;2023-04-06T06:31:47;8.20;73.40
23271;DHT22;11804;51.118;17.058;2023-04-06T06:34:15;8.50;69.50
23271;DHT22;11804;51.118;17.058;2023-04-06T06:36:43;8.20;67.10
23271;DHT22;11804;51.118;17.058;2023-04-06T06:39:10;7.80;72.70
23271;DHT22;11804;51.118;17.058;2023-04-06T06:41:38;8.10;71.40
23271;DHT22;11804;51.118;17.058;2023-04-06T06:44:05;6.80;80.00
23271;DHT22;11804;51.118;17.058;2023-04-06T06:46:33;7.30;85.00
23271;DHT22;11804;51.118;17.058;2023-04-06T06:49:01;7.90;74.90
23271;DHT22;11804;51.118;17.058;2023-04-06T06:51:29;8.00;77.50
23271;DHT22;11804;51.118;17.058;2023-04-06T06:53:57;8.20;74.30
23271;DHT22;11804;51.118;17.058;2023-04-06T06:56:25;8.10;71.80
23271;DHT22;11804;51.118;17.058;2023-04-06T06:58:54;9.40;66.70
23271;DHT22;11804;51.118;17.058;2023-04-06T07:01:22;9.90;63.80
23271;DHT22;11804;51.118;17.058;2023-04-06T07:03:49;10.00;63.60
23271;DHT22;11804;51.118;17.058;2023-04-06T07:06:17;11.00;58.30
23271;DHT22;11804;51.118;17.058;2023-04-06T07:08:44;10.60;58.20
23271;DHT22;11804;51.118;17.058;2023-04-06T07:11:12;10.40;59.70
23271;DHT22;11804;51.118;17.058;2023-04-06T07:13:39;10.00;60.80
23271;DHT22;11804;51.118;17.058;2023-04-06T07:16:07;9.90;61.50
23271;DHT22;11804;51.118;17.058;2023-04-06T07:18:35;9.90;62.90
23271;DHT22;11804;51.118;17.058;2023-04-06T07:21:03;11.30;58.00
23271;DHT22;11804;51.118;17.058;2023-04-06T07:23:31;11.10;57.10
23271;DHT22;11804;51.118;17.058;2023-04-06T07:25:59;11.40;57.30
23271;DHT22;11804;51.118;17.058;2023-04-06T07:28:26;12.00;55.10
23271;DHT22;11804;51.118;17.058;2023-04-06T07:30:54;12.30;52.70
23271;DHT22;11804;51.118;17.058;2023-04-06T07:33:22;11.10;54.70
23271;DHT22;11804;51.118;17.058;2023-04-06T07:35:49;10.90;57.00
23271;DHT22;11804;51.118;17.058;2023-04-06T07:38:18;11.10;56.90
23271;DHT22;11804;51.118;17.058;2023-04-06T07:40:45;11.30;54.10
23271;DHT22;11804;51.118;17.058;2023-04-06T07:43:13;11.10;53.40
23271;DHT22;11804;51.118;17.058;2023-04-06T07:45:41;11.60;52.00
23271;DHT22;11804;51.118;17.058;2023-04-06T07:48:08;11.80;51.60
23271;DHT22;11804;51.118;17.058;2023-04-06T07:50:36;11.80;48.00
23271;DHT22;11804;51.118;17.058;2023-04-06T07:53:04;10.60;48.50
23271;DHT22;11804;51.118;17.058;2023-04-06T07:55:32;10.40;49.90
23271;DHT22;11804;51.118;17.058;2023-04-06T07:57:59;9.90;49.70
23271;DHT22;11804;51.118;17.058;2023-04-06T08:00:27;9.90;52.10
23271;DHT22;11804;51.118;17.058;2023-04-06T08:02:55;11.10;50.00
23271;DHT22;11804;51.118;17.058;2023-04-06T08:05:23;11.10;47.50
23271;DHT22;11804;51.118;17.058;2023-04-06T08:07:50;10.80;46.20
23271;DHT22;11804;51.118;17.058;2023-04-06T08:10:18;10.00;45.80
23271;DHT22;11804;51.118;17.058;2023-04-06T08:12:45;10.00;47.30
23271;DHT22;11804;51.118;17.058;2023-04-06T08:15:13;10.10;48.80
23271;DHT22;11804;51.118;17.058;2023-04-06T08:17:41;10.40;48.20
23271;DHT22;11804;51.118;17.058;2023-04-06T08:20:09;10.20;49.50
23271;DHT22;11804;51.118;17.058;2023-04-06T08:22:37;10.40;46.40
23271;DHT22;11804;51.118;17.058;2023-04-06T08:25:05;10.90;46.50
23271;DHT22;11804;51.118;17.058;2023-04-06T08:27:33;11.90;44.90
23271;DHT22;11804;51.118;17.058;2023-04-06T08:30:01;11.60;42.20
23271;DHT22;11804;51.118;17.058;2023-04-06T08:32:28;10.60;42.70
23271;DHT22;11804;51.118;17.058;2023-04-06T08:34:56;10.40;43.40
23271;DHT22;11804;51.118;17.058;2023-04-06T08:37:24;11.00;43.40
23271;DHT22;11804;51.118;17.058;2023-04-06T08:39:51;11.00;43.00
23271;DHT22;11804;51.118;17.058;2023-04-06T08:42:21;10.70;42.20
23271;DHT22;11804;51.118;17.058;2023-04-06T08:44:49;9.70;44.80
23271;DHT22;11804;51.118;17.058;2023-04-06T08:47:21;9.50;44.90
23271;DHT22;11804;51.118;17.058;2023-04-06T08:49:49;10.50;44.90
23271;DHT22;11804;51.118;17.058;2023-04-06T08:52:18;11.30;42.90
23271;DHT22;11804;51.118;17.058;2023-04-06T08:54:48;11.40;42.40
23271;DHT22;11804;51.118;17.058;2023-04-06T08:57:15;12.10;42.20
23271;DHT22;11804;51.118;17.058;2023-04-06T08:59:44;12.00;41.20
23271;DHT22;11804;51.118;17.058;2023-04-06T09:02:15;11.70;42.30
23271;DHT22;11804;51.118;17.058;2023-04-06T09:04:49;12.50;41.60
23271;DHT22;11804;51.118;17.058;2023-04-06T09:07:15;12.90;40.60
23271;DHT22;11804;51.118;17.058;2023-04-06T09:09:43;13.10;39.50
23271;DHT22;11804;51.118;17.058;2023-04-06T09:12:30;11.90;38.80
23271;DHT22;11804;51.118;17.058;2023-04-06T09:14:59;11.00;41.40
23271;DHT22;11804;51.118;17.058;2023-04-06T09:17:29;11.50;42.10
23271;DHT22;11804;51.118;17.058;2023-04-06T09:20:00;12.40;41.90
23271;DHT22;11804;51.118;17.058;2023-04-06T09:22:36;12.60;39.50
23271;DHT22;11804;51.118;17.058;2023-04-06T09:25:05;11.30;40.40
23271;DHT22;11804;51.118;17.058;2023-04-06T09:27:35;10.00;42.90
23271;DHT22;11804;51.118;17.058;2023-04-06T09:30:08;10.00;43.50
23271;DHT22;11804;51.118;17.058;2023-04-06T09:32:49;10.20;44.20
23271;DHT22;11804;51.118;17.058;2023-04-06T09:35:18;11.20;42.50
23271;DHT22;11804;51.118;17.058;2023-04-06T09:37:51;12.00;41.10
23271;DHT22;11804;51.118;17.058;2023-04-06T09:40:19;12.60;39.50
23271;DHT22;11804;51.118;17.058;2023-04-06T09:42:49;13.20;38.70
23271;DHT22;11804;51.118;17.058;2023-04-06T09:45:19;13.10;36.50
23271;DHT22;11804;51.118;17.058;2023-04-06T09:47:47;11.60;38.80
23271;DHT22;11804;51.118;17.058;2023-04-06T09:50:17;11.50;40.30
23271;DHT22;11804;51.118;17.058;2023-04-06T09:52:47;11.10;41.30
23271;DHT22;11804;51.118;17.058;2023-04-06T09:55:30;11.60;40.80
23271;DHT22;11804;51.118;17.058;2023-04-06T10:00:40;9.80;44.90
23271;DHT22;11804;51.118;17.058;2023-04-06T10:05:46;10.60;44.10
23271;DHT22;11804;51.118;17.058;2023-04-06T10:08:15;10.40;43.70
23271;DHT22;11804;51.118;17.058;2023-04-06T10:10:43;11.60;42.00
23271;DHT22;11804;51.118;17.058;2023-04-06T10:13:12;11.60;40.90
23271;DHT22;11804;51.118;17.058;2023-04-06T10:15:39;11.30;41.50
23271;DHT22;11804;51.118;17.058;2023-04-06T10:18:08;10.30;42.70
23271;DHT22;11804;51.118;17.058;2023-04-06T10:21:09;10.40;44.10
23271;DHT22;11804;51.118;17.058;2023-04-06T10:23:55;11.20;43.10
23271;DHT22;11804;51.118;17.058;2023-04-06T10:26:23;11.90;40.80
23271;DHT22;11804;51.118;17.058;2023-04-06T10:28:50;12.40;39.60
23271;DHT22;11804;51.118;17.058;2023-04-06T10:31:25;11.80;40.00
23271;DHT22;11804;51.118;17.058;2023-04-06T10:33:59;11.50;40.00
23271;DHT22;11804;51.118;17.058;2023-04-06T10:36:28;11.50;41.70
23271;DHT22;11804;51.118;17.058;2023-04-06T10:39:02;11.60;40.40
23271;DHT22;11804;51.118;17.058;2023-04-06T10:41:41;11.60;39.20
23271;DHT22;11804;51.118;17.058;2023-04-06T10:44:19;11.10;39.20
23271;DHT22;11804;51.118;17.058;2023-04-06T10:46:56;10.90;40.40
23271;DHT22;11804;51.118;17.058;2023-04-06T10:49:26;11.30;41.10
23271;DHT22;11804;51.118;17.058;2023-04-06T10:51:55;11.60;39.60
23271;DHT22;11804;51.118;17.058;2023-04-06T10:54:27;11.30;39.80
23271;DHT22;11804;51.118;17.058;2023-04-06T10:56:55;11.70;40.10
23271;DHT22;11804;51.118;17.058;2023-04-06T10:59:23;12.60;38.30
23271;DHT22;11804;51.118;17.058;2023-04-06T11:01:51;12.30;38.70
23271;DHT22;11804;51.118;17.058;2023-04-06T11:04:21;11.90;39.60
23271;DHT22;11804;51.118;17.058;2023-04-06T11:06:50;11.50;40.30
23271;DHT22;11804;51.118;17.058;2023-04-06T11:09:28;10.90;40.90
23271;DHT22;11804;51.118;17.058;2023-04-06T11:11:58;10.40;42.00
23271;DHT22;11804;51.118;17.058;2023-04-06T11:14:27;10.60;42.80
23271;DHT22;11804;51.118;17.058;2023-04-06T11:16:55;10.70;41.70
23271;DHT22;11804;51.118;17.058;2023-04-06T11:19:22;10.80;41.60
23271;DHT22;11804;51.118;17.058;2023-04-06T11:21:50;11.20;41.50
23271;DHT22;11804;51.118;17.058;2023-04-06T11:24:24;11.00;41.70
23271;DHT22;11804;51.118;17.058;2023-04-06T11:26:57;10.80;42.20
23271;DHT22;11804;51.118;17.058;2023-04-06T11:29:31;10.80;42.40
23271;DHT22;11804;51.118;17.058;2023-04-06T11:32:01;11.10;41.90
23271;DHT22;11804;51.118;17.058;2023-04-06T11:34:32;11.10;41.50
23271;DHT22;11804;51.118;17.058;2023-04-06T11:37:01;10.80;42.10
23271;DHT22;11804;51.118;17.058;2023-04-06T11:39:31;11.00;43.30
23271;DHT22;11804;51.118;17.058;2023-04-06T11:42:00;11.00;43.00
23271;DHT22;11804;51.118;17.058;2023-04-06T11:47:08;10.30;42.80
23271;DHT22;11804;51.118;17.058;2023-04-06T11:49:40;10.50;42.80
23271;DHT22;11804;51.118;17.058;2023-04-06T11:52:16;10.50;42.30
23271;DHT22;11804;51.118;17.058;2023-04-06T11:54:51;10.20;42.90
23271;DHT22;11804;51.118;17.058;2023-04-06T11:57:16;10.30;44.10
23271;DHT22;11804;51.118;17.058;2023-04-06T11:59:44;10.30;42.80
23271;DHT22;11804;51.118;17.058;2023-04-06T12:02:12;10.20;42.50
23271;DHT22;11804;51.118;17.058;2023-04-06T12:04:40;10.40;42.80
23271;DHT22;11804;51.118;17.058;2023-04-06T12:07:08;10.30;43.30
23271;DHT22;11804;51.118;17.058;2023-04-06T12:09:35;10.20;43.00
23271;DHT22;11804;51.118;17.058;2023-04-06T12:12:03;10.00;43.80
23271;DHT22;11804;51.118;17.058;2023-04-06T12:14:31;10.10;44.10
23271;DHT22;11804;51.118;17.058;2023-04-06T12:16:59;10.10;44.40
23271;DHT22;11804;51.118;17.058;2023-04-06T12:19:27;10.10;43.40
23271;DHT22;11804;51.118;17.058;2023-04-06T12:21:55;10.00;42.50
23271;DHT22;11804;51.118;17.058;2023-04-06T12:24:24;9.50;43.10
23271;DHT22;11804;51.118;17.058;2023-04-06T12:26:51;9.60;43.30
23271;DHT22;11804;51.118;17.058;2023-04-06T12:29:20;9.60;42.90
23271;DHT22;11804;51.118;17.058;2023-04-06T12:31:47;9.70;43.80
23271;DHT22;11804;51.118;17.058;2023-04-06T12:34:15;9.60;44.70
23271;DHT22;11804;51.118;17.058;2023-04-06T12:36:43;9.70;44.90
23271;DHT22;11804;51.118;17.058;2023-04-06T12:39:10;9.70;44.40
23271;DHT22;11804;51.118;17.058;2023-04-06T12:41:38;9.80;44.80
23271;DHT22;11804;51.118;17.058;2023-04-06T12:44:08;9.90;44.00
23271;DHT22;11804;51.118;17.058;2023-04-06T12:46:35;9.90;44.30
23271;DHT22;11804;51.118;17.058;2023-04-06T12:49:03;9.90;44.30
23271;DHT22;11804;51.118;17.058;2023-04-06T12:51:31;9.90;44.60
23271;DHT22;11804;51.118;17.058;2023-04-06T12:53:58;10.00;44.00
23271;DHT22;11804;51.118;17.058;2023-04-06T12:56:26;10.10;43.30
23271;DHT22;11804;51.118;17.058;2023-04-06T12:58:54;10.20;43.50
23271;DHT22;11804;51.118;17.058;2023-04-06T13:01:23;10.00;43.70
23271;DHT22;11804;51.118;17.058;2023-04-06T13:03:51;9.80;43.80
23271;DHT22;11804;51.118;17.058;2023-04-06T13:06:21;9.90;44.00
23271;DHT22;11804;51.118;17.058;2023-04-06T13:08:48;10.00;43.50
23271;DHT22;11804;51.118;17.058;2023-04-06T13:11:16;10.00;42.50
23271;DHT22;11804;51.118;17.058;2023-04-06T13:13:45;10.00;42.40
23271;DHT22;11804;51.118;17.058;2023-04-06T13:16:13;10.00;42.80
23271;DHT22;11804;51.118;17.058;2023-04-06T13:18:43;10.10;42.60
23271;DHT22;11804;51.118;17.058;2023-04-06T13:21:15;10.00;42.90
23271;DHT22;11804;51.118;17.058;2023-04-06T13:23:43;9.90;43.50
23271;DHT22;11804;51.118;17.058;2023-04-06T13:26:11;9.90;43.00
23271;DHT22;11804;51.118;17.058;2023-04-06T13:28:39;10.00;43.20
23271;DHT22;11804;51.118;17.058;2023-04-06T13:31:07;10.00;43.20
23271;DHT22;11804;51.118;17.058;2023-04-06T13:33:36;9.90;43.00
23271;DHT22;11804;51.118;17.058;2023-04-06T13:36:06;9.90;43.30
23271;DHT22;11804;51.118;17.058;2023-04-06T13:38:34;9.60;42.90
23271;DHT22;11804;51.118;17.058;2023-04-06T13:41:04;9.50;43.10
23271;DHT22;11804;51.118;17.058;2023-04-06T13:43:32;9.60;42.70
23271;DHT22;11804;51.118;17.058;2023-04-06T13:45:59;9.60;42.90
23271;DHT22;11804;51.118;17.058;2023-04-06T13:48:27;9.70;43.90
23271;DHT22;11804;51.118;17.058;2023-04-06T13:50:55;9.80;42.90
23271;DHT22;11804;51.118;17.058;2023-04-06T13:53:23;10.00;43.00
23271;DHT22;11804;51.118;17.058;2023-04-06T13:55:54;10.20;42.80
23271;DHT22;11804;51.118;17.058;2023-04-06T13:58:22;10.00;43.40
23271;DHT22;11804;51.118;17.058;2023-04-06T14:00:50;10.00;43.70
23271;DHT22;11804;51.118;17.058;2023-04-06T14:03:21;10.10;43.90
23271;DHT22;11804;51.118;17.058;2023-04-06T14:05:49;9.90;43.90
23271;DHT22;11804;51.118;17.058;2023-04-06T14:08:17;10.00;44.10
23271;DHT22;11804;51.118;17.058;2023-04-06T14:10:45;9.90;44.00
23271;DHT22;11804;51.118;17.058;2023-04-06T14:13:13;9.90;44.30
23271;DHT22;11804;51.118;17.058;2023-04-06T14:15:40;9.80;44.20
23271;DHT22;11804;51.118;17.058;2023-04-06T14:18:08;9.90;44.10
23271;DHT22;11804;51.118;17.058;2023-04-06T14:20:36;9.70;44.20
23271;DHT22;11804;51.118;17.058;2023-04-06T14:23:04;9.80;44.50
23271;DHT22;11804;51.118;17.058;2023-04-06T14:25:32;9.80;44.40
23271;DHT22;11804;51.118;17.058;2023-04-06T14:28:01;10.00;44.50
23271;DHT22;11804;51.118;17.058;2023-04-06T14:30:32;9.90;43.90
23271;DHT22;11804;51.118;17.058;2023-04-06T14:33:00;9.70;44.30
23271;DHT22;11804;51.118;17.058;2023-04-06T14:35:27;9.70;44.50
23271;DHT22;11804;51.118;17.058;2023-04-06T14:37:57;9.70;44.70
23271;DHT22;11804;51.118;17.058;2023-04-06T14:40:25;9.60;45.00
23271;DHT22;11804;51.118;17.058;2023-04-06T14:42:53;9.80;45.00
23271;DHT22;11804;51.118;17.058;2023-04-06T14:45:22;9.90;44.90
23271;DHT22;11804;51.118;17.058;2023-04-06T14:47:49;10.00;44.80
23271;DHT22;11804;51.118;17.058;2023-04-06T14:50:17;10.10;44.00
23271;DHT22;11804;51.118;17.058;2023-04-06T14:52:45;9.90;44.00
23271;DHT22;11804;51.118;17.058;2023-04-06T14:55:13;10.10;44.50
23271;DHT22;11804;51.118;17.058;2023-04-06T14:57:42;10.10;44.10
23271;DHT22;11804;51.118;17.058;2023-04-06T15:00:10;10.10;44.00
23271;DHT22;11804;51.118;17.058;2023-04-06T15:02:39;10.10;43.80
23271;DHT22;11804;51.118;17.058;2023-04-06T15:05:09;9.90;44.00
23271;DHT22;11804;51.118;17.058;2023-04-06T15:07:38;9.80;44.20
23271;DHT22;11804;51.118;17.058;2023-04-06T15:10:07;9.80;44.70
23271;DHT22;11804;51.118;17.058;2023-04-06T15:12:36;10.00;44.50
23271;DHT22;11804;51.118;17.058;2023-04-06T15:15:05;10.10;44.10
23271;DHT22;11804;51.118;17.058;2023-04-06T15:17:32;10.20;43.90
23271;DHT22;11804;51.118;17.058;2023-04-06T15:20:00;10.10;44.00
23271;DHT22;11804;51.118;17.058;2023-04-06T15:22:29;9.80;44.70
23271;DHT22;11804;51.118;17.058;2023-04-06T15:24:56;9.80;44.60
23271;DHT22;11804;51.118;17.058;2023-04-06T15:27:24;9.70;44.80
23271;DHT22;11804;51.118;17.058;2023-04-06T15:29:51;9.60;44.80
23271;DHT22;11804;51.118;17.058;2023-04-06T15:32:20;9.70;45.20
23271;DHT22;11804;51.118;17.058;2023-04-06T15:34:48;9.80;44.90
23271;DHT22;11804;51.118;17.058;2023-04-06T15:37:16;9.90;44.60
23271;DHT22;11804;51.118;17.058;2023-04-06T15:39:43;9.80;44.80